Time;durP1;ratioP1;P1;durP2;ratioP2;P2;SDS_P1;SDS_P2;PMS_P1;PMS_P2;Temp;Humidity;BMP_temperature;BMP_pressure;BME280_temperature;BME280_humidity;BME280_pressure;Samples;Min_cycle;Max_cycle;Signal;HPM_P1;HPM_P2
2023/07/13 00:02:07;;;;;;;;;3.50;2.75;;;;;24.16;39.45;101266.44;4960163;28;45559;-65
2023/07/13 00:04:33;;;;;;;;;3.75;1.00;;;;;24.01;39.26;101255.47;4960138;28;45891;-65
2023/07/13 00:06:58;;;;;;;;;3.00;2.00;;;;;23.91;40.36;101273.75;4960105;28;46318;-66
2023/07/13 00:09:24;;;;;;;;;2.25;2.00;;;;;23.69;40.54;101279.16;4958230;28;45465;-65
2023/07/13 00:11:56;;;;;;;;;3.25;2.00;;;;;23.70;40.10;101270.22;4960286;28;46110;-65
2023/07/13 00:14:23;;;;;;;;;2.25;1.50;;;;;23.58;40.23;101265.38;4976267;28;45314;-65
2023/07/13 00:16:48;;;;;;;;;2.00;2.00;;;;;23.76;40.23;101273.59;4960824;28;45501;-65
2023/07/13 00:19:14;;;;;;;;;1.75;1.75;;;;;23.85;40.63;101276.72;4959812;28;45395;-65
2023/07/13 00:21:41;;;;;;;;;2.50;1.00;;;;;23.81;40.49;101275.09;4960814;28;45452;-67
2023/07/13 00:24:15;;;;;;;;;2.75;1.00;;;;;23.83;40.84;101278.59;4959957;28;45521;-65
2023/07/13 00:26:44;;;;;;;;;17.67;15.00;;;;;23.89;39.94;101278.31;4961150;28;46296;-65
2023/07/13 00:29:10;;;;;;;;;27.33;22.33;;;;;24.03;39.50;101280.34;4959965;28;45453;-65
2023/07/13 00:31:36;;;;;;;;;8.67;8.33;;;;;24.10;39.06;101284.47;4960222;28;45516;-65
2023/07/13 00:34:02;;;;;;;;;4.00;4.00;;;;;24.13;39.51;101283.47;4960335;28;45492;-65
2023/07/13 00:36:30;;;;;;;;;3.25;3.25;;;;;24.24;40.00;101280.31;4961122;28;46273;-68
2023/07/13 00:38:56;;;;;;;;;3.25;2.00;;;;;24.25;39.55;101276.66;4959787;28;45444;-64
2023/07/13 00:41:22;;;;;;;;;2.00;2.00;;;;;24.35;39.06;101294.06;4960352;28;45464;-66
2023/07/13 00:43:47;;;;;;;;;2.00;1.00;;;;;24.40;39.32;101291.19;4960109;28;45309;-65
2023/07/13 00:46:25;;;;;;;;;2.25;2.25;;;;;24.36;38.81;101295.78;4960014;28;45457;-64
2023/07/13 00:48:53;;;;;;;;;4.25;1.75;;;;;24.38;39.00;101296.59;4958683;28;45497;-66
2023/07/13 00:51:23;;;;;;;;;2.00;1.75;;;;;24.37;39.40;101302.00;4960076;28;45302;-65
2023/07/13 00:53:50;;;;;;;;;2.00;2.00;;;;;24.40;39.19;101300.06;4960046;28;45389;-64
2023/07/13 00:56:17;;;;;;;;;3.00;1.50;;;;;24.40;39.04;101302.75;4960625;28;45380;-64
2023/07/13 00:58:42;;;;;;;;;3.75;1.50;;;;;24.42;39.38;101297.34;4959499;28;45464;-65
2023/07/13 01:01:08;;;;;;;;;1.00;1.00;;;;;24.42;39.48;101298.19;4959877;28;45340;-64
2023/07/13 01:03:35;;;;;;;;;1.25;1.25;;;;;24.44;39.64;101295.41;4959787;28;45436;-65
2023/07/13 01:06:01;;;;;;;;;4.00;1.75;;;;;24.43;39.31;101305.28;4959123;28;46352;-64
2023/07/13 01:08:26;;;;;;;;;1.25;1.25;;;;;24.24;39.57;101291.88;4974410;28;45496;-64
2023/07/13 01:10:58;;;;;;;;;2.00;1.75;;;;;24.23;39.99;101300.00;4960873;28;45368;-65
2023/07/13 01:13:24;;;;;;;;;1.00;1.00;;;;;24.29;39.85;101310.41;4959686;28;45375;-65
2023/07/13 01:15:51;;;;;;;;;1.00;1.00;;;;;24.31;39.91;101308.53;4957914;28;46222;-65
2023/07/13 01:18:25;;;;;;;;;2.25;2.25;;;;;24.26;40.17;101303.38;4959179;28;45454;-64
2023/07/13 01:21:02;;;;;;;;;2.75;2.00;;;;;24.35;39.79;101312.81;4974367;28;45400;-65
2023/07/13 01:23:31;;;;;;;;;1.50;1.50;;;;;24.35;39.89;101310.13;4960451;28;45527;-64
2023/07/13 01:25:58;;;;;;;;;3.25;1.25;;;;;24.31;40.15;101306.72;4959588;28;45255;-65
2023/07/13 01:28:26;;;;;;;;;1.25;1.00;;;;;24.34;40.08;101313.72;4960320;28;45424;-66
2023/07/13 01:30:53;;;;;;;;;3.00;2.00;;;;;24.33;39.84;101315.53;4960942;28;45448;-66
2023/07/13 01:33:18;;;;;;;;;1.75;1.75;;;;;24.34;39.98;101314.63;4975653;28;45375;-65
2023/07/13 01:35:45;;;;;;;;;2.25;2.00;;;;;24.34;40.02;101313.72;4957456;28;46914;-65
2023/07/13 01:38:15;;;;;;;;;1.25;1.25;;;;;24.25;39.71;101300.75;4958789;28;45326;-67
2023/07/13 01:40:42;;;;;;;;;3.25;3.00;;;;;24.32;39.60;101319.16;4959025;28;45492;-66
2023/07/13 01:43:08;;;;;;;;;8.33;7.00;;;;;24.34;40.03;101321.75;4959143;28;45523;-67
2023/07/13 01:45:33;;;;;;;;;3.50;3.50;;;;;24.18;39.19;101293.97;4958093;28;47247;-66
2023/07/13 01:48:03;;;;;;;;;1.00;1.00;;;;;24.20;39.49;101298.28;4957918;28;45960;-64
2023/07/13 01:50:28;;;;;;;;;4.50;1.00;;;;;24.33;39.04;101322.72;4958947;28;45439;-68
2023/07/13 01:52:54;;;;;;;;;2.00;2.00;;;;;24.33;38.67;101330.75;4958484;28;45330;-65
2023/07/13 01:55:21;;;;;;;;;1.00;1.00;;;;;24.34;38.90;101324.44;4958642;28;46084;-65
2023/07/13 01:57:47;;;;;;;;;1.00;1.00;;;;;24.29;38.83;101326.47;4957186;28;45678;-67
2023/07/13 02:00:13;;;;;;;;;1.25;1.25;;;;;24.24;38.87;101323.13;4958372;28;45262;-64
2023/07/13 02:02:43;;;;;;;;;1.25;1.00;;;;;24.20;38.89;101313.50;4958822;28;45368;-65
2023/07/13 02:05:09;;;;;;;;;2.00;2.00;;;;;24.19;38.86;101319.81;4958327;28;46077;-65
2023/07/13 02:07:35;;;;;;;;;1.00;1.00;;;;;24.16;38.68;101322.63;4958521;28;45368;-65
2023/07/13 02:10:01;;;;;;;;;2.00;1.25;;;;;24.04;39.03;101311.53;4959383;28;45443;-65
2023/07/13 02:12:26;;;;;;;;;1.75;1.00;;;;;24.15;38.84;101323.53;4959286;28;45488;-65
2023/07/13 02:14:52;;;;;;;;;1.25;1.00;;;;;24.16;38.19;101325.31;4957947;28;46359;-67
2023/07/13 02:17:17;;;;;;;;;1.25;1.00;;;;;24.08;39.07;101329.19;4959769;28;45375;-66
2023/07/13 02:19:43;;;;;;;;;2.00;2.00;;;;;24.11;38.83;101322.84;4959222;28;45419;-68
2023/07/13 02:22:09;;;;;;;;;1.00;1.00;;;;;24.12;38.53;101329.91;4958124;28;45527;-68
2023/07/13 02:24:35;;;;;;;;;1.00;0.50;;;;;24.08;38.77;101309.56;4958773;28;45437;-68
2023/07/13 02:27:05;;;;;;;;;2.75;2.00;;;;;24.15;38.71;101324.41;4973524;28;45334;-68
2023/07/13 02:29:31;;;;;;;;;1.00;0.00;;;;;24.18;38.39;101326.97;4958473;28;45482;-68
2023/07/13 02:31:56;;;;;;;;;0.75;0.75;;;;;24.12;38.27;101314.72;4959481;28;45460;-67
2023/07/13 02:34:22;;;;;;;;;2.00;1.00;;;;;24.15;38.47;101320.88;4957745;28;45614;-68
2023/07/13 02:36:49;;;;;;;;;1.00;1.00;;;;;23.90;38.51;101269.34;4958085;28;45393;-66
2023/07/13 02:39:14;;;;;;;;;2.00;2.00;;;;;24.11;38.83;101317.47;4958099;28;45348;-68
2023/07/13 02:41:40;;;;;;;;;1.00;1.00;;;;;24.12;38.15;101314.72;4956809;28;45425;-67
2023/07/13 02:44:08;;;;;;;;;0.75;0.75;;;;;24.10;38.33;101321.06;4957671;28;45251;-68
2023/07/13 02:46:35;;;;;;;;;1.25;1.25;;;;;24.09;38.17;101322.03;4957484;28;45387;-66
2023/07/13 02:49:01;;;;;;;;;1.00;1.00;;;;;24.08;38.17;101328.31;4973057;28;45511;-68
2023/07/13 02:51:26;;;;;;;;;1.00;1.00;;;;;24.07;38.35;101318.53;4956974;28;45492;-66
2023/07/13 02:53:52;;;;;;;;;1.00;1.00;;;;;24.06;38.43;101319.47;4957631;28;45528;-66
2023/07/13 02:56:22;;;;;;;;;4.00;2.00;;;;;24.06;38.69;101324.81;4958208;28;45542;-66
2023/07/13 02:58:47;;;;;;;;;2.00;1.00;;;;;24.07;38.41;101321.22;4957774;28;45219;-64
2023/07/13 03:01:17;;;;;;;;;0.25;0.25;;;;;24.05;38.48;101323.09;4958521;28;45302;-65
2023/07/13 03:03:43;;;;;;;;;1.00;1.00;;;;;24.02;38.41;101328.59;4959373;28;45997;-65
2023/07/13 03:06:09;;;;;;;;;3.00;1.75;;;;;23.98;38.58;101326.97;4962828;28;45261;-64
2023/07/13 03:08:34;;;;;;;;;2.75;0.50;;;;;23.97;38.63;101320.78;4960272;28;45556;-64
2023/07/13 03:11:05;;;;;;;;;1.00;1.00;;;;;23.95;38.84;101338.69;4961362;28;45442;-64
2023/07/13 03:13:31;;;;;;;;;2.50;0.00;;;;;23.95;38.44;101341.38;4961654;28;45420;-64
2023/07/13 03:15:57;;;;;;;;;1.25;1.00;;;;;23.94;38.31;101341.44;4961339;28;45523;-65
2023/07/13 03:18:23;;;;;;;;;2.00;2.00;;;;;23.82;38.86;101333.00;4960983;28;45563;-64
2023/07/13 03:20:52;;;;;;;;;1.00;1.00;;;;;23.81;38.58;101339.28;4961777;28;45442;-65
2023/07/13 03:23:18;;;;;;;;;1.00;1.00;;;;;23.74;38.68;101321.78;4961092;28;46140;-65
2023/07/13 03:25:44;;;;;;;;;1.50;1.00;;;;;23.77;38.83;101328.78;4960656;28;45560;-68
2023/07/13 03:28:11;;;;;;;;;0.50;0.50;;;;;23.84;38.67;101338.28;4960962;28;45450;-69
2023/07/13 03:30:37;;;;;;;;;0.00;0.00;;;;;23.82;38.86;101335.66;4961052;28;45410;-66
2023/07/13 03:33:02;;;;;;;;;4.00;0.00;;;;;23.69;38.95;101319.28;4960901;28;45416;-65
2023/07/13 03:35:28;;;;;;;;;1.00;1.00;;;;;23.83;39.18;101339.25;4960639;28;45249;-64
2023/07/13 03:37:53;;;;;;;;;2.50;1.00;;;;;23.83;39.06;101347.28;4960880;28;45301;-66
2023/07/13 03:40:19;;;;;;;;;0.00;0.00;;;;;23.85;39.07;101351.59;4960883;28;45753;-65
2023/07/13 03:42:45;;;;;;;;;0.75;0.75;;;;;23.82;39.12;101345.50;4960680;28;45330;-64
2023/07/13 03:45:10;;;;;;;;;1.00;1.00;;;;;23.84;39.37;101347.19;4959328;28;45335;-68
2023/07/13 03:47:36;;;;;;;;;1.00;1.00;;;;;23.83;39.34;101349.94;4961155;28;45291;-66
2023/07/13 03:50:03;;;;;;;;;2.00;0.50;;;;;23.83;39.40;101347.28;4961075;28;45511;-66
2023/07/13 03:52:28;;;;;;;;;1.50;0.75;;;;;23.77;39.28;101355.53;4960711;28;45497;-65
2023/07/13 03:54:54;;;;;;;;;3.00;3.00;;;;;23.64;39.48;101323.09;4961424;28;45297;-65
2023/07/13 03:57:19;;;;;;;;;9.33;6.33;;;;;23.68;39.46;101335.38;4961243;28;45485;-65
2023/07/13 03:59:45;;;;;;;;;6.00;4.00;;;;;23.78;39.62;101357.31;4961080;28;45337;-66
2023/07/13 04:02:10;;;;;;;;;3.00;2.00;;;;;23.63;39.68;101338.28;4960549;28;45459;-66
2023/07/13 04:04:36;;;;;;;;;2.00;2.00;;;;;23.64;39.49;101349.84;4960692;28;45230;-65
2023/07/13 04:07:02;;;;;;;;;2.67;1.00;;;;;23.65;39.83;101359.59;4960538;28;45356;-65
2023/07/13 04:09:27;;;;;;;;;2.00;2.00;;;;;23.61;40.09;101360.63;4961506;28;45309;-65
2023/07/13 04:11:53;;;;;;;;;2.00;1.00;;;;;23.55;40.59;101361.78;4960714;28;45397;-64
2023/07/13 04:14:18;;;;;;;;;3.25;1.00;;;;;23.48;40.57;101358.50;4960130;28;45349;-65
2023/07/13 04:16:44;;;;;;;;;2.00;0.00;;;;;23.53;40.54;101373.47;4960565;28;45334;-65
2023/07/13 04:19:10;;;;;;;;;1.00;1.00;;;;;23.48;40.88;101363.84;4960476;28;45483;-65
2023/07/13 04:21:37;;;;;;;;;1.25;1.25;;;;;23.54;40.78;101369.84;4960519;28;46125;-66
2023/07/13 04:24:04;;;;;;;;;1.00;1.00;;;;;23.55;40.80;101372.47;4960633;28;45488;-65
2023/07/13 04:26:35;;;;;;;;;1.00;1.00;;;;;23.53;40.93;101374.34;4959310;28;45429;-66
2023/07/13 04:29:03;;;;;;;;;3.00;1.00;;;;;23.50;41.01;101379.81;4960681;28;45239;-65
2023/07/13 04:31:29;;;;;;;;;1.25;1.00;;;;;23.51;41.14;101381.53;4960277;28;46226;-66
2023/07/13 04:33:55;;;;;;;;;1.00;1.00;;;;;23.45;41.33;101377.34;4961088;28;45416;-68
2023/07/13 04:36:21;;;;;;;;;1.00;1.00;;;;;23.49;41.45;101388.75;4961983;28;45427;-65
2023/07/13 04:38:46;;;;;;;;;1.00;1.00;;;;;23.41;41.39;101377.53;4960622;28;45428;-67
2023/07/13 04:41:14;;;;;;;;;1.25;1.00;;;;;23.47;41.23;101390.66;4960585;28;45485;-65
2023/07/13 04:43:40;;;;;;;;;3.00;1.67;;;;;23.44;41.54;101391.66;4959233;28;45823;-64
2023/07/13 04:46:15;;;;;;;;;1.00;1.00;;;;;23.42;41.72;101384.59;4954633;28;45548;-66
2023/07/13 04:48:41;;;;;;;;;1.00;1.00;;;;;23.38;41.36;101375.84;4942294;28;45317;-65
2023/07/13 04:51:07;;;;;;;;;3.00;1.00;;;;;23.40;43.05;101392.72;4955355;28;47662;-65
2023/07/13 04:53:34;;;;;;;;;1.33;1.00;;;;;23.39;42.77;101393.63;4940771;28;45404;-65
2023/07/13 04:56:00;;;;;;;;;1.67;1.00;;;;;23.39;42.67;101400.78;4940730;28;45220;-67
2023/07/13 04:58:26;;;;;;;;;2.33;1.00;;;;;23.38;42.56;101399.91;4958524;28;45464;-66
2023/07/13 05:00:53;;;;;;;;;2.00;2.00;;;;;23.39;43.09;101406.13;4958641;28;47698;-65
2023/07/13 05:03:18;;;;;;;;;1.00;1.00;;;;;23.40;42.91;101394.53;4958860;28;45343;-65
2023/07/13 05:05:54;;;;;;;;;0.50;0.25;;;;;23.42;42.47;101392.63;4959748;28;45353;-65
2023/07/13 05:08:20;;;;;;;;;2.00;1.00;;;;;23.42;42.68;101385.50;4960943;28;45367;-64
2023/07/13 05:10:52;;;;;;;;;1.67;1.67;;;;;23.35;43.18;101392.03;4959031;28;45773;-64
2023/07/13 05:13:20;;;;;;;;;1.00;1.00;;;;;23.22;43.38;101372.06;4960076;28;46056;-63
2023/07/13 05:15:54;;;;;;;;;1.00;1.00;;;;;23.38;43.24;101389.22;4974619;28;45393;-66
2023/07/13 05:18:30;;;;;;;;;2.00;2.00;;;;;23.43;43.47;101389.91;4958066;28;45199;-66
2023/07/13 05:21:02;;;;;;;;;3.00;1.00;;;;;23.41;43.53;101389.09;4959297;28;45719;-63
2023/07/13 05:23:27;;;;;;;;;1.33;1.33;;;;;23.29;43.35;101366.41;4959600;28;45523;-66
2023/07/13 05:26:00;;;;;;;;;2.00;2.00;;;;;23.23;43.54;101358.66;4954655;28;45449;-65
2023/07/13 05:28:27;;;;;;;;;1.33;1.00;;;;;23.55;43.34;101406.38;4960440;28;45466;-65
2023/07/13 05:30:56;;;;;;;;;1.25;0.25;;;;;23.57;43.05;101410.72;4960150;28;46290;-66
2023/07/13 05:33:23;;;;;;;;;1.00;1.00;;;;;23.58;42.85;101404.41;4959932;28;45596;-68
2023/07/13 05:35:49;;;;;;;;;1.00;1.00;;;;;23.63;42.94;101409.56;4960087;28;45424;-64
2023/07/13 05:38:15;;;;;;;;;5.67;3.00;;;;;23.64;42.81;101409.53;4960935;28;45326;-65
2023/07/13 05:40:48;;;;;;;;;8.67;4.00;;;;;23.60;42.77;101407.91;4960599;28;46165;-64
2023/07/13 05:43:15;;;;;;;;;4.67;3.67;;;;;23.57;43.38;101418.75;4959268;28;45458;-68
2023/07/13 05:45:47;;;;;;;;;2.33;2.33;;;;;23.57;42.94;101423.22;4958410;28;45415;-66
2023/07/13 05:48:14;;;;;;;;;3.33;3.33;;;;;23.58;43.26;101422.28;4960132;28;45440;-65
2023/07/13 05:50:40;;;;;;;;;4.67;2.33;;;;;23.55;42.65;101411.72;4959518;28;46531;-66
2023/07/13 05:53:06;;;;;;;;;2.33;1.67;;;;;23.62;42.46;101421.22;4959463;28;45404;-66
2023/07/13 05:55:32;;;;;;;;;1.33;1.33;;;;;23.74;42.44;101419.88;4959744;28;45445;-65
2023/07/13 05:57:59;;;;;;;;;2.00;2.00;;;;;23.94;42.41;101427.03;4958195;28;45527;-66
2023/07/13 06:00:25;;;;;;;;;3.00;1.00;;;;;24.02;41.33;101415.06;4959663;28;46413;-66
2023/07/13 06:02:50;;;;;;;;;2.00;1.50;;;;;24.11;41.48;101420.03;4959331;28;45482;-67
2023/07/13 06:05:16;;;;;;;;;1.00;1.00;;;;;24.02;41.67;101423.09;4958742;28;45285;-68
2023/07/13 06:07:42;;;;;;;;;2.00;1.00;;;;;24.02;41.38;101424.91;4960166;28;45426;-65
2023/07/13 06:10:08;;;;;;;;;2.00;2.00;;;;;23.94;41.72;101427.91;4960103;28;46080;-65
2023/07/13 06:12:33;;;;;;;;;3.00;1.25;;;;;23.92;41.62;101432.47;4960921;28;45373;-68
2023/07/13 06:14:59;;;;;;;;;1.50;1.50;;;;;23.93;41.96;101428.84;4960724;28;45273;-69
2023/07/13 06:17:25;;;;;;;;;1.50;1.50;;;;;23.90;41.26;101429.00;4960149;28;45487;-67
2023/07/13 06:19:50;;;;;;;;;5.67;4.00;;;;;23.94;41.46;101433.25;4959046;28;45503;-64
2023/07/13 06:22:16;;;;;;;;;4.00;3.00;;;;;24.08;41.37;101432.66;4959924;28;45526;-63
2023/07/13 06:24:41;;;;;;;;;4.67;4.00;;;;;;;;4959070;28;45337;-65
2023/07/13 06:27:06;;;;;;;;;2.67;2.67;;;;;24.46;40.99;101436.34;4958848;28;45495;-66
2023/07/13 06:29:32;;;;;;;;;2.25;2.25;;;;;24.58;41.05;101444.78;4958849;28;45350;-67
2023/07/13 06:31:57;;;;;;;;;2.25;2.25;;;;;24.58;40.74;101448.31;4958551;28;45324;-66
2023/07/13 06:34:23;;;;;;;;;3.00;2.75;;;;;24.72;40.36;101445.88;4958577;28;45496;-65
2023/07/13 06:36:48;;;;;;;;;4.00;2.00;;;;;24.75;40.59;101439.53;4957189;28;45338;-66
2023/07/13 06:39:14;;;;;;;;;3.25;3.25;;;;;24.80;40.64;101448.22;4959484;28;45542;-66
2023/07/13 06:41:39;;;;;;;;;3.00;3.00;;;;;24.78;40.53;101449.25;4958001;28;45344;-65
2023/07/13 06:44:06;;;;;;;;;12.67;10.67;;;;;24.66;40.95;101443.50;4957950;28;45512;-65
2023/07/13 06:46:32;;;;;;;;;7.00;7.00;;;;;24.68;40.43;101448.78;4958016;28;45779;-65
2023/07/13 06:48:58;;;;;;;;;11.67;11.33;;;;;24.67;41.30;101452.41;4957492;28;45463;-64
2023/07/13 06:51:23;;;;;;;;;13.67;10.67;;;;;24.59;40.96;101446.53;4958881;28;45257;-65
2023/07/13 06:53:50;;;;;;;;;12.33;12.33;;;;;24.72;40.98;101458.41;4958902;28;45356;-64
2023/07/13 06:56:15;;;;;;;;;17.33;11.67;;;;;24.85;41.03;101451.56;4958080;28;45516;-64
2023/07/13 06:58:41;;;;;;;;;6.33;6.00;;;;;25.00;40.63;101452.63;4957749;28;46154;-64
2023/07/13 07:01:07;;;;;;;;;4.00;3.25;;;;;25.09;40.60;101457.56;4959788;28;45398;-66
2023/07/13 07:03:32;;;;;;;;;4.25;2.00;;;;;25.19;40.08;101458.03;4960346;28;45302;-65
2023/07/13 07:06:20;;;;;;;;;2.75;2.50;;;;;25.29;39.88;101461.13;4959070;28;45436;-65
2023/07/13 07:08:46;;;;;;;;;3.00;2.75;;;;;25.31;40.23;101454.75;4958393;28;46019;-65
2023/07/13 07:11:14;;;;;;;;;3.50;2.00;;;;;25.43;40.31;101464.00;4957973;28;45270;-65
2023/07/13 07:13:39;;;;;;;;;2.00;2.00;;;;;25.43;39.79;101463.16;4958276;28;45417;-64
2023/07/13 07:16:06;;;;;;;;;2.25;2.25;;;;;25.40;40.14;101461.50;4959479;28;45482;-65
2023/07/13 07:18:32;;;;;;;;;0.00;0.00;;;;;25.35;40.15;101469.75;4958229;28;45412;-65
2023/07/13 07:20:58;;;;;;;;;5.75;2.75;;;;;25.21;40.46;101463.34;4958256;28;45556;-65
2023/07/13 07:23:23;;;;;;;;;3.75;2.00;;;;;25.22;40.56;101455.19;4962281;28;45396;-68
2023/07/13 07:25:49;;;;;;;;;3.75;2.00;;;;;25.40;40.39;101472.22;4962259;28;45586;-63
2023/07/13 07:28:19;;;;;;;;;4.00;3.00;;;;;25.50;40.55;101473.50;4958984;28;46560;-66
2023/07/13 07:30:46;;;;;;;;;2.75;2.75;;;;;25.47;40.34;101462.06;4957410;28;45579;-67
2023/07/13 07:33:11;;;;;;;;;2.00;2.00;;;;;25.54;40.47;101475.09;4948632;28;45468;-66
2023/07/13 07:35:37;;;;;;;;;1.75;1.75;;;;;25.46;40.11;101449.59;4957931;28;45295;-64
2023/07/13 07:38:02;;;;;;;;;3.25;1.75;;;;;25.65;40.15;101482.63;4956269;28;46254;-64
2023/07/13 07:40:28;;;;;;;;;2.00;2.00;;;;;25.72;39.83;101480.47;4957966;28;46278;-64
2023/07/13 07:42:54;;;;;;;;;3.00;1.25;;;;;25.82;39.88;101481.78;4959037;28;45501;-65
2023/07/13 07:45:21;;;;;;;;;2.00;2.00;;;;;25.82;39.78;101473.75;4958343;28;45396;-67
2023/07/13 07:47:46;;;;;;;;;2.00;2.00;;;;;25.89;39.62;101479.66;4956380;28;45933;-65
2023/07/13 07:50:12;;;;;;;;;3.00;2.00;;;;;25.90;40.00;101476.91;4958687;28;45277;-65
2023/07/13 07:52:37;;;;;;;;;1.50;1.50;;;;;25.95;39.56;101477.56;4960206;28;45427;-64
2023/07/13 07:55:06;;;;;;;;;5.00;2.50;;;;;26.00;40.05;101471.94;4961445;28;45246;-65
2023/07/13 07:57:31;;;;;;;;;19.00;15.67;;;;;26.20;39.68;101485.22;4960491;28;45475;-65
2023/07/13 07:59:57;;;;;;;;;14.33;12.33;;;;;26.33;39.77;101472.03;4960555;28;45650;-66
2023/07/13 08:02:22;;;;;;;;;7.75;7.00;;;;;26.39;39.53;101485.13;4961213;28;45451;-65
2023/07/13 08:04:48;;;;;;;;;4.25;4.25;;;;;26.18;40.14;101476.38;4961633;28;45520;-65
2023/07/13 08:07:14;;;;;;;;;3.25;3.25;;;;;26.01;40.09;101484.44;4964320;28;45244;-66
2023/07/13 08:09:39;;;;;;;;;14.00;11.00;;;;;26.06;40.39;101487.75;4963333;28;45307;-67
2023/07/13 08:12:05;;;;;;;;;11.50;8.75;;;;;26.07;40.09;101478.75;4965230;28;45254;-66
2023/07/13 08:14:30;;;;;;;;;3.75;3.25;;;;;26.15;40.00;101494.44;4963865;28;45434;-65
2023/07/13 08:16:56;;;;;;;;;5.25;3.75;;;;;26.14;39.96;101487.34;4963138;28;46720;-64
2023/07/13 08:19:22;;;;;;;;;4.50;2.75;;;;;26.15;39.89;101489.09;4964209;28;45622;-65
2023/07/13 08:21:48;;;;;;;;;3.00;3.00;;;;;26.15;39.70;101481.03;4962999;28;45445;-65
2023/07/13 08:24:14;;;;;;;;;3.00;3.00;;;;;26.15;40.04;101484.59;4961945;28;45454;-65
2023/07/13 08:26:43;;;;;;;;;3.25;3.25;;;;;26.19;39.90;101494.22;4962638;28;45447;-64
2023/07/13 08:29:12;;;;;;;;;3.00;3.00;;;;;26.21;39.99;101496.84;4963570;28;45473;-64
2023/07/13 08:31:37;;;;;;;;;2.75;2.75;;;;;26.23;39.68;101494.94;4961188;28;45768;-64
2023/07/13 08:34:03;;;;;;;;;2.50;2.50;;;;;26.37;39.53;101492.41;4960898;28;45418;-64
2023/07/13 08:36:33;;;;;;;;;3.00;3.00;;;;;26.41;39.07;101488.63;4960719;28;46200;-65
2023/07/13 08:38:58;;;;;;;;;2.50;2.50;;;;;26.38;38.91;101495.94;4975054;28;45341;-64
2023/07/13 08:41:24;;;;;;;;;3.00;2.00;;;;;26.39;39.22;101492.34;4960233;28;45479;-65
2023/07/13 08:43:58;;;;;;;;;3.25;3.00;;;;;26.48;39.15;101488.28;4960404;28;45372;-65
2023/07/13 08:46:33;;;;;;;;;2.00;2.00;;;;;26.50;38.66;101484.56;4959962;28;45353;-67
2023/07/13 08:49:03;;;;;;;;;2.00;2.00;;;;;26.38;39.17;101485.22;4959717;28;45421;-66
2023/07/13 08:51:42;;;;;;;;;4.00;2.75;;;;;26.14;39.08;101492.72;4959908;28;45832;-65
2023/07/13 08:54:36;;;;;;;;;2.50;2.00;;;;;25.95;39.74;101490.97;4960723;28;45282;-65
2023/07/13 08:57:14;;;;;;;;;2.00;2.00;;;;;25.96;39.43;101487.34;4960401;28;45613;-67
2023/07/13 08:59:41;;;;;;;;;4.00;2.25;;;;;26.19;38.85;101491.53;4959243;28;45489;-65
2023/07/13 09:02:27;;;;;;;;;3.25;3.25;;;;;26.24;38.02;101496.66;4949606;28;45428;-65
2023/07/13 09:04:57;;;;;;;;;2.25;2.25;;;;;26.24;38.47;101488.59;4957727;28;45570;-64
2023/07/13 09:07:52;;;;;;;;;2.25;2.25;;;;;26.39;37.70;101497.72;4956498;28;45380;-65
2023/07/13 09:10:24;;;;;;;;;1.00;1.00;;;;;26.35;37.30;101496.13;4957196;28;45618;-66
2023/07/13 09:13:12;;;;;;;;;3.00;3.00;;;;;26.32;37.65;101491.78;4956452;28;45443;-65
2023/07/13 09:15:43;;;;;;;;;1.75;1.75;;;;;26.12;37.87;101497.31;4955653;28;45480;-65
2023/07/13 09:18:09;;;;;;;;;7.00;2.50;;;;;25.96;37.83;101490.03;4957809;28;45264;-66
2023/07/13 09:20:43;;;;;;;;;5.00;3.00;;;;;25.94;38.32;101488.38;4958221;28;45610;-66
2023/07/13 09:23:19;;;;;;;;;4.25;3.00;;;;;25.92;38.22;101484.91;4955841;28;45459;-64
2023/07/13 09:25:55;;;;;;;;;2.00;2.00;;;;;25.52;38.07;101436.75;4958604;28;45492;-66
2023/07/13 09:28:26;;;;;;;;;2.00;2.00;;;;;26.02;38.22;101483.47;4973766;28;47158;-65
2023/07/13 09:31:03;;;;;;;;;2.25;2.25;;;;;25.99;37.92;101472.91;4960177;28;45379;-70
2023/07/13 09:33:30;;;;;;;;;4.00;2.00;;;;;26.26;37.36;101485.84;4958883;28;45635;-70
2023/07/13 09:35:59;;;;;;;;;3.50;2.00;;;;;26.27;37.40;101490.25;4960144;28;45432;-68
2023/07/13 09:38:28;;;;;;;;;4.00;3.00;;;;;26.31;36.82;101481.97;4959951;28;45392;-68
2023/07/13 09:41:10;;;;;;;;;4.00;2.00;;;;;26.29;36.28;101486.59;4959178;28;45250;-67
2023/07/13 09:43:36;;;;;;;;;1.25;1.25;;;;;26.22;36.33;101475.28;4957258;28;45399;-66
2023/07/13 09:46:04;;;;;;;;;2.25;1.75;;;;;26.11;36.30;101485.69;4959216;28;45382;-64
2023/07/13 09:48:36;;;;;;;;;1.25;1.25;;;;;25.98;36.04;101482.78;4959038;28;46342;-65
2023/07/13 09:51:14;;;;;;;;;1.25;1.25;;;;;25.88;36.11;101480.63;4958478;28;45540;-66
2023/07/13 09:53:42;;;;;;;;;4.25;3.00;;;;;25.77;35.88;101490.06;4959683;28;45425;-68
2023/07/13 09:56:19;;;;;;;;;4.75;3.00;;;;;25.66;36.45;101497.78;4959180;28;45365;-67
2023/07/13 09:58:45;;;;;;;;;1.00;1.00;;;;;25.37;36.34;101497.38;4958257;28;46038;-67
2023/07/13 10:01:11;;;;;;;;;3.75;2.00;;;;;25.29;36.61;101502.22;4958454;28;45400;-69
2023/07/13 10:03:43;;;;;;;;;2.00;2.00;;;;;25.34;36.85;101500.22;4958811;28;45397;-65
2023/07/13 10:06:17;;;;;;;;;1.75;1.75;;;;;25.53;37.09;101508.25;4959004;28;45467;-64
2023/07/13 10:08:46;;;;;;;;;3.00;3.00;;;;;25.64;37.23;101507.69;4960761;28;46337;-66
2023/07/13 10:11:20;;;;;;;;;3.00;3.00;;;;;25.67;36.79;101514.72;4977553;28;45534;-67
2023/07/13 10:13:53;;;;;;;;;3.50;2.25;;;;;25.65;37.16;101514.81;4978159;28;45333;-65
2023/07/13 10:16:19;;;;;;;;;1.00;1.00;;;;;25.64;37.39;101507.69;4977135;28;45467;-68
2023/07/13 10:19:13;;;;;;;;;1.25;1.25;;;;;25.67;37.50;101512.91;4978083;28;45304;-66
2023/07/13 10:21:52;;;;;;;;;1.75;1.75;;;;;25.73;37.46;101517.13;4978430;28;45365;-67
2023/07/13 10:24:22;;;;;;;;;1.25;1.25;;;;;25.70;37.33;101526.19;4977579;28;45340;-69
2023/07/13 10:27:19;;;;;;;;;2.25;2.00;;;;;25.70;37.36;101518.16;4979385;28;45379;-66
2023/07/13 10:30:10;;;;;;;;;3.00;2.00;;;;;25.71;36.63;101527.91;4994219;28;45286;-64
2023/07/13 10:32:36;;;;;;;;;2.75;1.50;;;;;25.74;37.08;101533.13;4976390;28;45881;-65
2023/07/13 10:35:02;;;;;;;;;2.00;2.00;;;;;25.80;36.87;101526.59;4977443;28;45448;-65
2023/07/13 10:37:44;;;;;;;;;3.75;2.00;;;;;25.86;37.08;101525.41;4977863;28;45503;-67
2023/07/13 10:40:19;;;;;;;;;1.25;1.25;;;;;25.85;37.02;101523.69;4977487;28;46259;-65
2023/07/13 10:42:50;;;;;;;;;2.50;2.00;;;;;25.87;37.55;101527.22;4977252;28;45435;-64
2023/07/13 10:45:18;;;;;;;;;4.25;2.00;;;;;25.97;37.17;101533.84;4977134;28;45467;-65
2023/07/13 10:47:45;;;;;;;;;1.25;1.00;;;;;25.99;37.40;101529.28;4977411;28;45451;-64
2023/07/13 10:50:20;;;;;;;;;2.25;2.25;;;;;26.04;38.28;101532.59;4977141;28;46386;-63
2023/07/13 10:52:50;;;;;;;;;3.00;2.00;;;;;26.08;38.80;101533.28;4977287;28;45329;-65
2023/07/13 10:55:42;;;;;;;;;2.75;2.00;;;;;26.10;38.53;101528.72;4977436;28;45295;-64
2023/07/13 10:58:34;;;;;;;;;3.25;2.00;;;;;26.12;37.93;101541.13;4960671;28;45951;-65
2023/07/13 11:01:05;;;;;;;;;2.75;2.00;;;;;26.13;37.62;101539.31;4957936;28;45583;-64
2023/07/13 11:03:33;;;;;;;;;4.00;3.00;;;;;26.10;37.54;101543.03;4957504;28;45416;-65
2023/07/13 11:06:30;;;;;;;;;4.00;3.00;;;;;26.12;37.80;101546.47;4957930;28;45391;-67
2023/07/13 11:08:58;;;;;;;;;2.00;2.00;;;;;26.10;37.41;101531.41;4957003;28;45461;-64
2023/07/13 11:11:25;;;;;;;;;4.25;1.75;;;;;26.12;37.50;101545.63;4957583;28;46407;-65
2023/07/13 11:13:50;;;;;;;;;4.00;3.00;;;;;26.04;38.33;101537.09;4955969;28;45323;-66
2023/07/13 11:16:16;;;;;;;;;5.00;2.00;;;;;26.01;37.71;101546.19;4957397;28;45479;-63
2023/07/13 11:18:47;;;;;;;;;3.75;2.75;;;;;25.95;37.97;101536.59;4957562;28;45314;-64
2023/07/13 11:21:15;;;;;;;;;2.00;2.00;;;;;26.00;37.28;101536.38;4955748;28;46499;-64
2023/07/13 11:23:48;;;;;;;;;5.25;3.00;;;;;25.97;37.25;101534.72;4957584;28;45649;-65
2023/07/13 11:26:47;;;;;;;;;3.75;3.50;;;;;26.00;37.41;101525.63;4959392;28;45463;-65
2023/07/13 11:29:37;;;;;;;;;3.25;2.25;;;;;25.95;37.51;101523.19;4961208;28;45475;-65
2023/07/13 11:32:23;;;;;;;;;2.25;2.25;;;;;26.02;37.52;101524.59;4961826;28;45503;-66